Time;durP1;ratioP1;P1;durP2;ratioP2;P2;SDS_P1;SDS_P2;PMS_P1;PMS_P2;Temp;Humidity;BMP_temperature;BMP_pressure;BME280_temperature;BME280_humidity;BME280_pressure;Samples;Min_cycle;Max_cycle;Signal;HPM_P1;HPM_P2
2024/02/21 00:02:09;;;;;;;9.55;5.88;;;10.30;92.40;;;;;;5052206;28;20056;-73
2024/02/21 00:04:36;;;;;;;9.40;6.47;;;10.30;92.50;;;;;;5052125;28;20067;-73
2024/02/21 00:07:02;;;;;;;9.98;5.22;;;10.30;92.70;;;;;;5052470;28;20469;-73
2024/02/21 00:09:28;;;;;;;9.38;6.70;;;10.30;92.60;;;;;;5055012;28;20025;-73
2024/02/21 00:11:53;;;;;;;10.73;7.18;;;10.30;92.70;;;;;;5056449;28;20082;-73
2024/02/21 00:14:21;;;;;;;13.18;7.38;;;10.20;92.80;;;;;;5056259;28;20033;-73
2024/02/21 00:16:47;;;;;;;11.65;7.55;;;10.20;92.90;;;;;;5056337;28;20021;-73
2024/02/21 00:19:14;;;;;;;15.98;9.18;;;10.20;93.00;;;;;;5056340;28;20040;-74
2024/02/21 00:21:40;;;;;;;13.23;8.37;;;10.10;93.10;;;;;;5056093;28;20059;-74
2024/02/21 00:24:06;;;;;;;14.90;9.32;;;10.10;93.20;;;;;;5056388;28;20024;-73
2024/02/21 00:26:32;;;;;;;16.77;10.23;;;10.10;93.30;;;;;;5056156;28;20032;-73
2024/02/21 00:28:57;;;;;;;13.15;9.13;;;10.10;93.40;;;;;;5056199;28;20142;-73
2024/02/21 00:31:23;;;;;;;13.27;7.72;;;10.00;93.70;;;;;;5056102;28;20013;-73
2024/02/21 00:33:50;;;;;;;12.50;6.93;;;10.10;94.00;;;;;;5055735;28;20029;-73
2024/02/21 00:36:16;;;;;;;14.85;7.18;;;10.00;94.20;;;;;;5056222;28;20044;-73
2024/02/21 00:38:42;;;;;;;12.52;6.75;;;10.00;94.40;;;;;;5056016;28;20072;-73
2024/02/21 00:41:07;;;;;;;13.30;7.20;;;10.00;94.60;;;;;;5055932;28;20033;-73
2024/02/21 00:43:33;;;;;;;9.77;6.50;;;10.00;94.80;;;;;;5055768;28;20082;-73
2024/02/21 00:45:59;;;;;;;8.75;6.10;;;10.00;94.90;;;;;;5055195;28;20037;-73
2024/02/21 00:48:24;;;;;;;8.32;5.03;;;9.90;95.10;;;;;;5055763;28;20025;-73
2024/02/21 00:50:50;;;;;;;6.43;4.43;;;9.90;95.30;;;;;;5055687;28;20060;-73
2024/02/21 00:53:16;;;;;;;7.78;4.88;;;9.90;95.40;;;;;;5055564;28;20013;-73
2024/02/21 00:55:43;;;;;;;7.28;4.75;;;9.90;95.50;;;;;;5055708;28;20056;-73
2024/02/21 00:58:09;;;;;;;6.43;4.45;;;9.90;95.80;;;;;;5055432;28;20049;-73
2024/02/21 01:00:34;;;;;;;10.70;4.23;;;9.90;95.40;;;;;;5055632;28;20096;-73
2024/02/21 01:03:00;;;;;;;5.72;3.72;;;9.90;95.50;;;;;;5055496;28;20028;-73
2024/02/21 01:05:28;;;;;;;5.15;3.60;;;9.90;95.60;;;;;;5055329;28;20029;-74
2024/02/21 01:07:54;;;;;;;5.10;3.38;;;9.90;95.60;;;;;;5037432;28;20537;-73
2024/02/21 01:10:20;;;;;;;5.70;3.67;;;9.90;95.60;;;;;;5055264;28;20125;-72
2024/02/21 01:12:46;;;;;;;6.93;3.80;;;9.90;95.70;;;;;;5055142;28;20037;-72
2024/02/21 01:15:12;;;;;;;6.70;3.27;;;9.80;95.80;;;;;;5055326;28;20037;-74
2024/02/21 01:17:40;;;;;;;4.90;3.10;;;9.80;95.80;;;;;;5055146;28;20103;-73
2024/02/21 01:20:06;;;;;;;5.93;2.77;;;9.90;95.80;;;;;;5053820;28;20044;-73
2024/02/21 01:22:33;;;;;;;4.87;3.40;;;9.80;95.90;;;;;;5055128;28;20032;-73
2024/02/21 01:24:58;;;;;;;5.43;4.07;;;9.90;95.90;;;;;;5055333;28;20039;-72
2024/02/21 01:27:24;;;;;;;9.53;3.60;;;9.80;95.70;;;;;;5054794;28;20025;-73
2024/02/21 01:29:50;;;;;;;9.63;3.83;;;9.80;95.70;;;;;;5054983;28;20029;-73
2024/02/21 01:32:16;;;;;;;6.17;3.87;;;9.80;95.80;;;;;;5055105;28;20051;-73
2024/02/21 01:34:42;;;;;;;8.93;5.53;;;9.80;95.90;;;;;;5055118;28;20029;-73
2024/02/21 01:37:07;;;;;;;8.67;4.80;;;9.80;95.40;;;;;;5055119;28;20388;-73
2024/02/21 01:39:33;;;;;;;7.03;4.83;;;9.70;95.40;;;;;;5054868;28;20029;-74
2024/02/21 01:41:59;;;;;;;8.20;5.47;;;9.60;95.60;;;;;;5054784;28;20017;-73
2024/02/21 01:44:25;;;;;;;8.93;5.57;;;9.60;95.70;;;;;;5055074;28;20074;-73
2024/02/21 01:46:52;;;;;;;8.77;5.03;;;9.60;95.80;;;;;;5037156;28;20024;-73
2024/02/21 01:49:20;;;;;;;7.17;4.43;;;9.50;95.90;;;;;;5054805;28;20029;-73
2024/02/21 01:51:46;;;;;;;9.53;4.37;;;9.50;96.00;;;;;;5054831;28;20021;-72
2024/02/21 01:54:15;;;;;;;6.60;4.07;;;9.40;96.10;;;;;;5054428;28;20028;-73
2024/02/21 01:56:41;;;;;;;7.67;4.90;;;9.40;96.10;;;;;;5054638;28;20029;-74
2024/02/21 01:59:07;;;;;;;6.17;4.00;;;9.40;96.30;;;;;;5051861;28;20036;-73
2024/02/21 02:01:33;;;;;;;5.57;3.77;;;9.30;96.30;;;;;;5051737;28;20104;-73
2024/02/21 02:03:59;;;;;;;7.07;3.20;;;9.30;96.40;;;;;;5051835;28;20155;-73
2024/02/21 02:06:25;;;;;;;4.47;2.33;;;9.30;96.40;;;;;;5053782;28;20079;-73
2024/02/21 02:08:52;;;;;;;3.63;1.80;;;9.30;96.60;;;;;;5054331;28;20032;-72
2024/02/21 02:11:18;;;;;;;3.97;1.73;;;9.30;96.90;;;;;;5054264;28;20104;-72
2024/02/21 02:13:44;;;;;;;2.53;1.53;;;9.30;97.10;;;;;;5053753;28;20408;-73
2024/02/21 02:16:10;;;;;;;5.40;2.17;;;9.30;97.20;;;;;;5053870;28;20096;-73
2024/02/21 02:18:35;;;;;;;2.47;1.50;;;9.40;97.30;;;;;;5054209;28;20063;-73
2024/02/21 02:21:01;;;;;;;1.97;1.37;;;9.40;97.20;;;;;;5053817;28;20079;-73
2024/02/21 02:23:31;;;;;;;2.90;1.63;;;9.50;97.20;;;;;;5053733;28;20037;-72
2024/02/21 02:25:58;;;;;;;3.00;1.60;;;9.50;97.20;;;;;;5054002;28;20021;-73
2024/02/21 02:28:24;;;;;;;3.13;1.70;;;9.60;97.20;;;;;;5053274;28;20025;-73
2024/02/21 02:30:50;;;;;;;3.10;2.00;;;9.60;97.10;;;;;;5035596;28;20036;-74
2024/02/21 02:33:19;;;;;;;2.17;1.40;;;9.60;97.00;;;;;;5053329;28;20512;-73
2024/02/21 02:35:45;;;;;;;3.27;1.53;;;9.70;97.00;;;;;;5053247;28;20504;-73
2024/02/21 02:38:12;;;;;;;2.70;1.30;;;9.70;96.90;;;;;;5053150;28;20512;-73
2024/02/21 02:40:40;;;;;;;1.73;1.40;;;9.70;96.80;;;;;;5053354;28;20029;-73
2024/02/21 02:43:06;;;;;;;2.03;1.50;;;9.70;96.80;;;;;;5053729;28;20027;-73
2024/02/21 02:45:32;;;;;;;8.33;1.77;;;9.80;96.60;;;;;;5053701;28;20467;-73
2024/02/21 02:47:58;;;;;;;4.63;2.10;;;9.70;96.40;;;;;;5053191;28;20029;-73
2024/02/21 02:50:25;;;;;;;2.93;1.47;;;9.80;96.40;;;;;;5053076;28;20071;-73
2024/02/21 02:52:51;;;;;;;5.67;1.87;;;9.80;96.10;;;;;;5053111;28;20024;-73
2024/02/21 02:55:17;;;;;;;2.00;1.50;;;9.80;96.10;;;;;;5053358;28;20013;-73
2024/02/21 02:57:43;;;;;;;3.57;1.47;;;9.80;96.10;;;;;;5050724;28;20028;-73
2024/02/21 03:00:12;;;;;;;3.87;1.70;;;9.80;96.10;;;;;;5073406;28;20032;-73
2024/02/21 03:02:44;;;;;;;5.63;1.70;;;9.90;96.00;;;;;;5073047;28;20047;-72
2024/02/21 03:05:21;;;;;;;6.93;3.03;;;9.90;96.00;;;;;;5073047;28;20107;-72
2024/02/21 03:07:48;;;;;;;4.13;2.50;;;9.80;95.70;;;;;;5073567;28;20020;-73
2024/02/21 03:10:16;;;;;;;4.13;2.40;;;9.80;95.50;;;;;;5072989;28;20021;-73
2024/02/21 03:12:42;;;;;;;3.23;2.03;;;9.80;95.60;;;;;;5073197;28;20051;-73
2024/02/21 03:15:08;;;;;;;3.57;1.80;;;9.70;95.50;;;;;;5073338;28;20024;-72
2024/02/21 03:17:34;;;;;;;4.23;1.73;;;9.70;95.60;;;;;;5054785;28;20063;-73
2024/02/21 03:20:01;;;;;;;4.20;1.90;;;9.70;95.50;;;;;;5072826;28;20052;-73
2024/02/21 03:22:27;;;;;;;3.30;1.70;;;9.70;95.70;;;;;;5073069;28;20017;-73
2024/02/21 03:24:53;;;;;;;5.97;2.77;;;9.70;95.70;;;;;;5073091;28;20025;-73
2024/02/21 03:27:18;;;;;;;7.47;2.67;;;9.70;95.80;;;;;;5072870;28;20021;-73
2024/02/21 03:29:44;;;;;;;7.00;2.83;;;9.70;95.70;;;;;;5073089;28;20094;-73
2024/02/21 03:32:10;;;;;;;4.73;3.03;;;9.60;95.50;;;;;;5073033;28;20358;-73
2024/02/21 03:34:36;;;;;;;4.53;3.20;;;9.60;95.50;;;;;;5072659;28;20473;-73
2024/02/21 03:37:01;;;;;;;9.30;4.03;;;9.50;95.50;;;;;;5072990;28;20025;-73
2024/02/21 03:39:27;;;;;;;5.33;3.37;;;9.50;95.60;;;;;;5072611;28;20062;-73
2024/02/21 03:41:53;;;;;;;3.30;2.27;;;9.40;95.60;;;;;;5072823;28;20059;-73
2024/02/21 03:44:19;;;;;;;4.80;2.47;;;9.40;95.80;;;;;;5071886;28;20059;-72
2024/02/21 03:46:45;;;;;;;3.40;2.07;;;9.40;96.10;;;;;;5054627;28;20029;-73
2024/02/21 03:49:11;;;;;;;2.50;1.70;;;9.30;96.20;;;;;;5072492;28;20025;-73
2024/02/21 03:51:37;;;;;;;6.70;1.90;;;9.30;96.40;;;;;;5072684;28;20017;-72
2024/02/21 03:54:03;;;;;;;5.97;2.27;;;9.30;96.40;;;;;;5072645;28;20024;-73
2024/02/21 03:56:28;;;;;;;5.70;3.03;;;9.30;96.40;;;;;;5072703;28;20099;-73
2024/02/21 03:58:55;;;;;;;4.37;2.93;;;9.30;96.40;;;;;;5072522;28;20037;-73
2024/02/21 04:01:21;;;;;;;5.57;3.37;;;9.20;96.00;;;;;;5072397;28;20124;-72
2024/02/21 04:03:46;;;;;;;5.27;3.27;;;9.20;96.00;;;;;;5072350;28;20107;-73
2024/02/21 04:06:12;;;;;;;6.83;3.53;;;9.10;96.00;;;;;;5072661;28;20029;-73
2024/02/21 04:08:39;;;;;;;4.17;2.70;;;9.10;96.00;;;;;;5072500;28;20028;-72
2024/02/21 04:11:05;;;;;;;6.90;2.83;;;9.00;96.20;;;;;;5072512;28;20025;-73
2024/02/21 04:13:30;;;;;;;5.47;3.10;;;9.00;96.30;;;;;;5072469;28;20067;-73
2024/02/21 04:15:56;;;;;;;4.17;2.53;;;9.00;96.20;;;;;;5072400;28;20056;-73
2024/02/21 04:18:22;;;;;;;7.10;2.70;;;8.90;96.30;;;;;;5072447;28;20177;-73
2024/02/21 04:20:48;;;;;;;4.93;2.70;;;8.90;96.50;;;;;;5072315;28;20504;-73
2024/02/21 04:23:14;;;;;;;5.13;2.23;;;8.80;96.50;;;;;;5072377;28;20115;-72
2024/02/21 04:25:39;;;;;;;3.43;2.20;;;8.80;96.50;;;;;;5072623;28;20063;-73
2024/02/21 04:28:05;;;;;;;9.23;4.90;;;8.80;96.60;;;;;;5072416;28;20025;-73
2024/02/21 04:30:31;;;;;;;11.97;7.47;;;8.80;96.70;;;;;;5072180;28;20031;-73
2024/02/21 04:32:57;;;;;;;5.13;2.47;;;8.80;96.90;;;;;;5072014;28;20032;-73
2024/02/21 04:35:23;;;;;;;3.87;2.00;;;8.80;96.90;;;;;;5071926;28;20024;-73
2024/02/21 04:37:49;;;;;;;6.83;2.27;;;8.80;96.90;;;;;;5072119;28;20028;-73
2024/02/21 04:40:16;;;;;;;4.20;1.97;;;8.90;96.90;;;;;;5072078;28;20032;-73
2024/02/21 04:42:42;;;;;;;9.07;1.70;;;8.90;96.90;;;;;;5071989;28;20029;-72
2024/02/21 04:45:09;;;;;;;2.13;1.60;;;8.90;96.80;;;;;;5072027;28;20088;-73
2024/02/21 04:47:34;;;;;;;3.00;1.80;;;8.90;96.90;;;;;;5072283;28;20531;-73
2024/02/21 04:50:00;;;;;;;2.67;1.50;;;8.90;96.90;;;;;;5072113;28;20036;-73
2024/02/21 04:52:26;;;;;;;4.40;1.70;;;9.00;96.80;;;;;;5072092;28;20029;-73
2024/02/21 04:54:51;;;;;;;3.47;1.70;;;9.00;96.80;;;;;;5073252;28;20111;-72
2024/02/21 04:57:17;;;;;;;4.93;1.80;;;9.00;96.60;;;;;;5075733;28;20024;-73
2024/02/21 04:59:49;;;;;;;4.03;2.00;;;9.00;96.60;;;;;;5075678;28;20040;-73
2024/02/21 05:02:15;;;;;;;3.58;1.77;;;9.10;96.50;;;;;;5075798;28;20025;-72
2024/02/21 05:04:42;;;;;;;2.70;2.00;;;9.10;96.50;;;;;;5037543;28;20477;-72
2024/02/21 05:07:08;;;;;;;6.10;2.10;;;9.00;96.50;;;;;;5055220;28;20358;-72
2024/02/21 05:09:34;;;;;;;2.73;1.70;;;9.10;96.30;;;;;;5055314;28;20024;-73
2024/02/21 05:12:00;;;;;;;4.77;1.90;;;9.00;96.20;;;;;;5055121;28;20021;-73
2024/02/21 05:14:28;;;;;;;2.77;2.00;;;9.10;96.40;;;;;;5055127;28;20025;-73
2024/02/21 05:16:54;;;;;;;3.30;1.80;;;9.00;96.30;;;;;;5053692;28;20506;-73
2024/02/21 05:19:20;;;;;;;4.63;2.13;;;9.10;96.20;;;;;;5054147;28;20116;-73
2024/02/21 05:21:46;;;;;;;3.30;2.10;;;9.00;96.00;;;;;;5054670;28;20021;-73
2024/02/21 05:24:12;;;;;;;3.20;1.70;;;9.00;96.00;;;;;;5055344;28;20025;-72
2024/02/21 05:26:38;;;;;;;3.63;1.67;;;9.00;96.00;;;;;;5055043;28;20024;-72
2024/02/21 05:29:04;;;;;;;3.27;1.40;;;9.00;96.00;;;;;;5054939;28;20021;-73
2024/02/21 05:31:52;;;;;;;2.33;1.70;;;9.00;96.00;;;;;;5055015;28;20025;-73
2024/02/21 05:34:22;;;;;;;4.47;1.80;;;9.00;95.80;;;;;;5055094;28;20037;-73
2024/02/21 05:36:51;;;;;;;3.83;1.57;;;9.00;95.70;;;;;;5054909;28;20049;-73
2024/02/21 05:39:18;;;;;;;6.67;2.43;;;9.00;95.80;;;;;;5054712;28;20033;-73
2024/02/21 05:41:43;;;;;;;2.40;1.60;;;9.00;95.80;;;;;;5054872;28;20057;-73
2024/02/21 05:44:10;;;;;;;7.17;2.20;;;9.00;95.80;;;;;;5054709;28;20067;-73
2024/02/21 05:46:36;;;;;;;4.23;2.27;;;9.00;95.70;;;;;;5036856;28;20071;-73
2024/02/21 05:49:02;;;;;;;2.93;1.80;;;9.00;95.60;;;;;;5054445;28;20052;-73
2024/02/21 05:51:28;;;;;;;2.33;1.60;;;9.00;95.60;;;;;;5054681;28;20031;-73
2024/02/21 05:53:53;;;;;;;5.13;2.13;;;9.00;95.70;;;;;;5054187;28;20096;-73
2024/02/21 05:56:19;;;;;;;3.07;1.90;;;9.00;95.50;;;;;;5054485;28;20450;-73
2024/02/21 05:58:45;;;;;;;5.20;2.20;;;9.00;95.40;;;;;;5054141;28;20033;-73
2024/02/21 06:01:11;;;;;;;6.00;2.00;;;9.00;95.50;;;;;;5054433;28;20068;-73
2024/02/21 06:03:37;;;;;;;5.43;2.10;;;9.00;95.40;;;;;;5054038;28;20473;-73
2024/02/21 06:06:04;;;;;;;3.57;2.00;;;9.00;95.30;;;;;;5053762;28;20031;-73
2024/02/21 06:08:30;;;;;;;4.67;2.20;;;9.00;95.30;;;;;;5054234;28;20029;-73
2024/02/21 06:10:56;;;;;;;5.33;2.30;;;8.90;95.20;;;;;;5054118;28;20393;-71
2024/02/21 06:13:25;;;;;;;4.27;2.13;;;8.90;95.10;;;;;;5053998;28;20112;-72
2024/02/21 06:15:51;;;;;;;3.43;1.80;;;9.00;95.00;;;;;;5053935;28;20028;-72
2024/02/21 06:18:20;;;;;;;6.90;2.10;;;9.00;95.00;;;;;;5053478;28;20021;-72
2024/02/21 06:20:46;;;;;;;3.37;1.80;;;9.00;95.10;;;;;;5053747;28;20033;-72
2024/02/21 06:23:13;;;;;;;7.90;2.13;;;9.00;95.10;;;;;;5053792;28;20481;-72
2024/02/21 06:25:40;;;;;;;11.93;2.20;;;9.00;95.20;;;;;;5053830;28;20076;-72
2024/02/21 06:28:06;;;;;;;9.20;2.30;;;8.90;95.30;;;;;;5053729;28;20037;-71
2024/02/21 06:30:32;;;;;;;5.30;1.93;;;9.00;95.30;;;;;;5053817;28;20028;-72
2024/02/21 06:32:59;;;;;;;6.87;2.43;;;9.00;95.40;;;;;;5053469;28;20025;-72
2024/02/21 06:35:24;;;;;;;9.17;2.10;;;9.00;95.30;;;;;;5053266;28;20505;-71
2024/02/21 06:37:51;;;;;;;5.33;2.33;;;9.00;95.20;;;;;;5062445;28;20031;-71
2024/02/21 06:40:22;;;;;;;3.73;2.10;;;9.00;95.20;;;;;;5073447;28;20464;-72
2024/02/21 06:42:48;;;;;;;5.63;2.23;;;9.00;95.20;;;;;;5059493;28;20480;-72
2024/02/21 06:45:14;;;;;;;5.27;1.90;;;9.00;95.40;;;;;;5053405;28;20025;-72
2024/02/21 06:47:40;;;;;;;3.43;2.17;;;9.00;95.30;;;;;;5053699;28;20032;-71
2024/02/21 06:50:06;;;;;;;4.53;2.07;;;9.00;95.40;;;;;;5053580;28;20025;-72
2024/02/21 06:52:32;;;;;;;4.83;2.00;;;9.00;95.40;;;;;;5053591;28;20033;-72
2024/02/21 06:54:58;;;;;;;5.00;1.80;;;9.00;95.40;;;;;;5053243;28;20496;-72
2024/02/21 06:57:24;;;;;;;8.87;2.23;;;9.00;95.70;;;;;;5053549;28;20032;-72
2024/02/21 06:59:49;;;;;;;6.83;2.37;;;9.00;95.70;;;;;;5053352;28;20044;-72
2024/02/21 07:02:15;;;;;;;16.37;3.57;;;9.00;95.60;;;;;;5053117;28;20126;-72
2024/02/21 07:04:41;;;;;;;20.83;3.77;;;9.00;95.70;;;;;;5052532;28;20028;-71
2024/02/21 07:07:07;;;;;;;15.37;4.10;;;9.00;95.60;;;;;;5052792;28;20025;-71
2024/02/21 07:09:33;;;;;;;15.60;2.70;;;9.10;95.80;;;;;;5053221;28;20071;-71
2024/02/21 07:11:59;;;;;;;15.93;4.00;;;9.10;95.90;;;;;;5053051;28;20021;-71
2024/02/21 07:14:25;;;;;;;25.10;5.77;;;9.10;95.70;;;;;;5052683;28;20033;-71
2024/02/21 07:16:51;;;;;;;38.97;6.10;;;9.10;95.80;;;;;;5052604;28;20033;-72
2024/02/21 07:19:17;;;;;;;15.37;6.23;;;9.10;96.00;;;;;;5051674;28;20040;-72
2024/02/21 07:21:43;;;;;;;29.77;6.90;;;9.10;96.00;;;;;;5052721;28;20037;-72
2024/02/21 07:24:09;;;;;;;24.87;6.17;;;9.10;96.30;;;;;;5052626;28;20021;-71
2024/02/21 07:26:35;;;;;;;21.10;6.30;;;9.10;96.40;;;;;;5052959;28;20033;-72
2024/02/21 07:29:01;;;;;;;26.57;7.37;;;9.10;96.50;;;;;;5052710;28;20024;-71
2024/02/21 07:31:26;;;;;;;29.67;6.47;;;9.20;96.70;;;;;;5052773;28;20025;-71
2024/02/21 07:33:52;;;;;;;29.10;6.40;;;9.20;96.90;;;;;;5052177;28;20032;-72
2024/02/21 07:36:29;;;;;;;14.13;5.50;;;9.30;96.90;;;;;;5052812;28;20021;-72
2024/02/21 07:38:55;;;;;;;14.27;5.53;;;9.30;97.00;;;;;;5052408;28;20120;-72
2024/02/21 07:41:21;;;;;;;21.00;6.17;;;9.40;97.10;;;;;;5052460;28;20152;-71
2024/02/21 07:43:48;;;;;;;16.27;5.43;;;9.50;97.00;;;;;;5052258;28;20021;-71
2024/02/21 07:46:14;;;;;;;23.67;5.40;;;9.50;97.10;;;;;;5052550;28;20104;-71
2024/02/21 07:48:40;;;;;;;16.50;4.90;;;9.60;97.00;;;;;;5052415;28;20053;-71
2024/02/21 07:51:05;;;;;;;21.87;4.30;;;9.60;97.10;;;;;;5052357;28;20025;-71
2024/02/21 07:53:31;;;;;;;4.87;2.50;;;9.70;97.20;;;;;;5052375;28;20032;-71
2024/02/21 07:55:57;;;;;;;11.87;2.60;;;9.70;97.20;;;;;;5052305;28;20037;-72
2024/02/21 07:58:23;;;;;;;8.27;2.70;;;9.70;97.00;;;;;;5052088;28;20068;-72
2024/02/21 08:00:49;;;;;;;6.97;2.40;;;9.80;97.00;;;;;;5052187;28;20079;-72
2024/02/21 08:03:17;;;;;;;7.63;2.10;;;9.80;96.80;;;;;;5052161;28;20084;-72
2024/02/21 08:05:43;;;;;;;5.57;1.90;;;9.80;96.40;;;;;;5052148;28;20032;-72
2024/02/21 08:08:18;;;;;;;4.70;1.60;;;9.90;96.10;;;;;;5050028;28;20082;-70
2024/02/21 08:10:43;;;;;;;4.20;1.90;;;9.90;95.90;;;;;;5068928;28;20119;-72
2024/02/21 08:13:09;;;;;;;2.60;1.50;;;10.00;95.50;;;;;;5070557;28;20131;-71
2024/02/21 08:15:35;;;;;;;7.00;2.15;;;10.00;95.20;;;;;;5051015;28;20078;-71
2024/02/21 08:18:03;;;;;;;3.50;1.73;;;10.10;95.00;;;;;;5051401;28;20044;-72
2024/02/21 08:20:29;;;;;;;4.20;1.60;;;10.20;94.80;;;;;;5052291;28;20043;-72
2024/02/21 08:22:55;;;;;;;4.47;1.53;;;10.30;94.70;;;;;;5051857;28;20100;-71
2024/02/21 08:25:20;;;;;;;2.95;1.58;;;10.30;93.90;;;;;;5052028;28;20112;-71
2024/02/21 08:27:46;;;;;;;5.75;2.30;;;10.40;93.80;;;;;;5051775;28;20078;-71
2024/02/21 08:30:12;;;;;;;4.72;2.00;;;10.40;93.60;;;;;;5053650;28;20376;-71
2024/02/21 08:32:38;;;;;;;4.73;2.00;;;10.40;93.40;;;;;;5055981;28;20111;-71
2024/02/21 08:35:05;;;;;;;4.95;1.85;;;10.50;93.50;;;;;;5055825;28;20060;-71
2024/02/21 08:37:30;;;;;;;5.80;2.03;;;10.50;93.40;;;;;;5055126;28;20025;-71
2024/02/21 08:39:56;;;;;;;4.47;2.13;;;10.50;93.30;;;;;;5054986;28;20124;-72
2024/02/21 08:42:23;;;;;;;2.85;1.98;;;10.60;93.00;;;;;;5054951;28;20040;-71
2024/02/21 08:44:49;;;;;;;5.93;2.03;;;10.60;93.20;;;;;;5055180;28;20036;-72
2024/02/21 08:47:15;;;;;;;2.58;1.75;;;10.60;93.40;;;;;;5054992;28;20018;-71
2024/02/21 08:49:41;;;;;;;3.33;1.95;;;10.60;93.50;;;;;;5037315;28;20027;-72
2024/02/21 08:52:06;;;;;;;4.32;2.42;;;10.60;93.60;;;;;;5037188;28;20078;-70
2024/02/21 08:54:33;;;;;;;9.13;2.10;;;10.70;93.80;;;;;;5055165;28;20017;-71
2024/02/21 08:56:59;;;;;;;6.07;2.55;;;10.70;93.90;;;;;;5055077;28;20052;-71
2024/02/21 08:59:26;;;;;;;5.30;2.60;;;10.80;93.90;;;;;;5054903;28;20076;-71
2024/02/21 09:01:54;;;;;;;6.30;2.67;;;10.90;93.80;;;;;;5055056;28;20446;-71
2024/02/21 09:04:20;;;;;;;6.55;2.60;;;10.90;93.60;;;;;;5054444;28;20484;-71
2024/02/21 09:06:46;;;;;;;4.80;2.45;;;11.00;93.40;;;;;;5054739;28;20029;-71
2024/02/21 09:09:12;;;;;;;8.80;2.50;;;11.00;93.20;;;;;;5054738;28;20436;-71
2024/02/21 09:11:39;;;;;;;4.72;2.05;;;11.10;93.20;;;;;;5054753;28;20029;-71
2024/02/21 09:14:05;;;;;;;7.40;2.30;;;11.10;93.10;;;;;;5054171;28;20059;-71
2024/02/21 09:16:34;;;;;;;3.67;2.17;;;11.10;93.00;;;;;;5027199;28;20127;-71
2024/02/21 09:19:00;;;;;;;2.80;2.03;;;11.20;92.90;;;;;;5054660;28;20485;-71
2024/02/21 09:21:26;;;;;;;9.40;2.40;;;11.20;92.90;;;;;;5052713;28;20056;-72
2024/02/21 09:23:52;;;;;;;5.40;2.40;;;11.20;92.90;;;;;;5065118;28;20056;-71
2024/02/21 09:26:17;;;;;;;2.88;1.83;;;11.30;92.80;;;;;;5074715;28;20020;-71
2024/02/21 09:28:45;;;;;;;4.07;1.98;;;11.40;92.40;;;;;;5074156;28;20033;-71
2024/02/21 09:31:10;;;;;;;4.43;2.35;;;11.50;92.20;;;;;;5058543;28;20445;-71
2024/02/21 09:33:37;;;;;;;4.63;1.77;;;11.50;91.90;;;;;;5054273;28;20067;-71
2024/02/21 09:36:05;;;;;;;3.22;1.70;;;11.60;92.00;;;;;;5054657;28;20029;-71
2024/02/21 09:38:31;;;;;;;3.47;1.83;;;11.70;91.80;;;;;;5054193;28;20033;-71
2024/02/21 09:41:08;;;;;;;5.18;2.20;;;11.80;91.50;;;;;;5054029;28;20052;-71
2024/02/21 09:43:36;;;;;;;4.15;1.73;;;11.80;91.20;;;;;;5054460;28;20025;-72
2024/02/21 09:46:02;;;;;;;3.92;2.00;;;11.90;91.10;;;;;;5054488;28;20060;-72
2024/02/21 09:48:41;;;;;;;7.13;1.80;;;12.00;90.90;;;;;;5066550;28;20031;-72
2024/02/21 09:51:10;;;;;;;7.03;1.90;;;12.00;90.70;;;;;;5058708;28;20025;-72
2024/02/21 09:53:38;;;;;;;3.58;1.90;;;12.10;90.30;;;;;;5054082;28;20162;-72
2024/02/21 09:56:07;;;;;;;9.20;2.00;;;12.20;90.40;;;;;;5053905;28;20381;-73
2024/02/21 09:58:34;;;;;;;6.22;2.00;;;12.20;90.00;;;;;;5053036;28;20524;-72
2024/02/21 10:01:00;;;;;;;19.80;2.25;;;12.30;89.20;;;;;;5035298;28;20035;-72
2024/02/21 10:03:26;;;;;;;4.28;1.77;;;12.30;88.50;;;;;;5053351;28;20028;-72
2024/02/21 10:05:52;;;;;;;5.05;1.90;;;12.40;87.30;;;;;;5053712;28;20056;-72
2024/02/21 10:08:20;;;;;;;5.40;1.85;;;12.40;87.10;;;;;;5053475;28;20039;-72
2024/02/21 10:10:46;;;;;;;21.38;2.55;;;12.40;86.90;;;;;;5053768;28;20036;-72
2024/02/21 10:13:29;;;;;;;3.53;2.00;;;12.50;87.60;;;;;;5061899;22;20415;-72
2024/02/21 10:16:08;;;;;;;4.60;1.90;;;12.60;88.00;;;;;;5053915;28;20055;-72
2024/02/21 10:18:34;;;;;;;4.05;1.85;;;12.70;86.80;;;;;;5053699;28;20456;-72
2024/02/21 10:21:06;;;;;;;4.75;1.77;;;12.80;86.10;;;;;;5053996;28;20021;-72
2024/02/21 10:23:45;;;;;;;62.60;3.58;;;12.90;85.90;;;;;;5054249;28;20033;-71
2024/02/21 10:26:11;;;;;;;3.90;1.80;;;13.00;85.30;;;;;;5054236;28;20048;-72
2024/02/21 10:28:47;;;;;;;13.15;2.30;;;13.00;83.60;;;;;;5054007;28;20052;-72
2024/02/21 10:31:23;;;;;;;6.25;1.90;;;13.10;83.60;;;;;;5053902;28;20488;-69
2024/02/21 10:34:05;;;;;;;4.35;2.22;;;13.10;83.00;;;;;;5053768;28;20033;-69
2024/02/21 10:36:31;;;;;;;4.30;1.95;;;13.20;84.00;;;;;;5053852;28;20112;-69
2024/02/21 10:38:57;;;;;;;5.00;1.88;;;13.30;82.90;;;;;;5053054;28;20453;-70
2024/02/21 10:41:24;;;;;;;4.43;2.10;;;13.30;81.80;;;;;;5051630;28;20096;-70
2024/02/21 10:43:54;;;;;;;2.92;2.00;;;13.40;81.10;;;;;;5051747;28;20040;-70
2024/02/21 10:46:22;;;;;;;5.40;1.95;;;13.50;81.10;;;;;;5052595;28;20017;-70
2024/02/21 10:49:16;;;;;;;4.13;2.22;;;13.60;81.70;;;;;;5053656;28;20067;-70
2024/02/21 10:51:45;;;;;;;6.03;2.25;;;13.60;81.80;;;;;;5053400;28;20027;-70
2024/02/21 10:54:37;;;;;;;5.68;2.15;;;13.80;82.40;;;;;;5052922;28;20480;-70
2024/02/21 10:57:05;;;;;;;5.43;2.40;;;13.80;81.40;;;;;;5051590;28;20469;-69
2024/02/21 10:59:32;;;;;;;5.53;2.22;;;13.90;80.10;;;;;;5051283;28;20473;-69
2024/02/21 11:01:58;;;;;;;6.38;2.35;;;14.00;79.00;;;;;;5051364;28;20033;-69
2024/02/21 11:04:25;;;;;;;5.05;2.15;;;14.00;79.10;;;;;;5051199;28;20036;-70
2024/02/21 11:06:51;;;;;;;12.07;2.53;;;14.10;79.00;;;;;;5051285;28;20025;-70
2024/02/21 11:09:17;;;;;;;5.97;2.42;;;14.20;79.40;;;;;;5051223;28;20620;-69
2024/02/21 11:11:46;;;;;;;4.07;1.98;;;14.20;79.00;;;;;;5052812;28;20088;-70
2024/02/21 11:14:18;;;;;;;7.63;2.17;;;14.30;77.70;;;;;;5053265;28;20045;-70
2024/02/21 11:16:44;;;;;;;;;;;14.40;78.00;;;;;;5053744;28;20017;-70
2024/02/21 11:19:20;;;;;;;2.78;1.65;;;14.40;77.30;;;;;;5053285;28;19912;-70
2024/02/21 11:21:47;;;;;;;3.78;1.60;;;14.50;75.10;;;;;;5035214;28;20071;-70
2024/02/21 11:24:13;;;;;;;3.97;2.00;;;14.50;71.60;;;;;;5053270;28;20025;-70
2024/02/21 11:26:43;;;;;;;3.22;2.30;;;14.60;72.80;;;;;;5053045;28;20496;-71
2024/02/21 11:29:10;;;;;;;2.78;1.90;;;14.60;74.90;;;;;;5052543;28;20024;-70
2024/02/21 11:31:43;;;;;;;5.40;2.30;;;14.70;75.20;;;;;;5052427;28;20381;-70
2024/02/21 11:34:10;;;;;;;4.90;2.35;;;14.80;75.90;;;;;;5052736;28;20036;-69
2024/02/21 11:36:45;;;;;;;3.30;1.90;;;14.90;74.70;;;;;;5052484;28;20028;-70
2024/02/21 11:39:11;;;;;;;4.07;2.20;;;14.90;73.30;;;;;;5052371;28;20037;-69
2024/02/21 11:41:37;;;;;;;3.40;2.10;;;14.90;72.50;;;;;;5060811;28;20480;-69
2024/02/21 11:44:03;;;;;;;3.65;2.38;;;15.00;72.40;;;;;;5072758;28;20043;-70
2024/02/21 11:46:29;;;;;;;2.70;1.90;;;15.00;72.70;;;;;;5072604;28;20017;-70
2024/02/21 11:48:56;;;;;;;5.70;2.35;;;15.10;71.30;;;;;;5072719;28;20024;-70
2024/02/21 11:51:26;;;;;;;2.88;1.70;;;15.10;70.60;;;;;;5072546;28;20108;-69
2024/02/21 11:53:53;;;;;;;3.08;1.73;;;15.10;69.00;;;;;;5072582;28;20028;-70
2024/02/21 11:56:19;;;;;;;8.52;2.20;;;15.20;68.80;;;;;;5072533;28;20025;-70
2024/02/21 11:58:49;;;;;;;5.18;1.80;;;15.20;68.70;;;;;;5072085;28;20115;-70
2024/02/21 12:01:15;;;;;;;4.30;2.30;;;15.20;69.40;;;;;;5072792;28;20028;-70
2024/02/21 12:03:42;;;;;;;3.00;1.95;;;15.30;69.60;;;;;;5072469;28;20051;-70
2024/02/21 12:06:08;;;;;;;3.92;1.77;;;15.30;67.70;;;;;;5076286;28;20074;-70
2024/02/21 12:08:44;;;;;;;2.13;1.40;;;15.40;67.10;;;;;;5076519;28;20541;-71
2024/02/21 12:11:21;;;;;;;2.25;1.63;;;15.40;65.10;;;;;;5076415;28;20079;-71
2024/02/21 12:13:47;;;;;;;3.58;1.98;;;15.40;65.30;;;;;;5076323;28;20052;-71
2024/02/21 12:16:17;;;;;;;2.50;1.75;;;15.50;66.60;;;;;;5076542;28;20031;-73
2024/02/21 12:18:43;;;;;;;3.58;2.17;;;15.50;67.10;;;;;;5076429;28;20028;-72
2024/02/21 12:21:10;;;;;;;3.28;1.77;;;15.60;65.30;;;;;;5076502;28;20484;-72
2024/02/21 12:23:38;;;;;;;2.90;1.80;;;15.70;64.50;;;;;;5075916;28;20031;-73
2024/02/21 12:26:04;;;;;;;2.58;1.40;;;15.80;63.60;;;;;;5076291;28;20024;-71
2024/02/21 12:28:30;;;;;;;4.30;1.80;;;15.80;63.80;;;;;;5075837;28;20484;-71
2024/02/21 12:30:56;;;;;;;2.60;1.65;;;15.80;64.20;;;;;;5075979;28;20147;-70
2024/02/21 12:33:22;;;;;;;3.55;1.70;;;15.80;63.80;;;;;;5075591;28;20035;-71
2024/02/21 12:35:49;;;;;;;5.32;1.58;;;15.80;63.60;;;;;;5075365;28;20051;-70
2024/02/21 12:38:15;;;;;;;3.05;1.85;;;15.80;63.80;;;;;;5075529;28;20071;-71
2024/02/21 12:40:40;;;;;;;3.33;2.22;;;15.80;63.60;;;;;;5075328;28;20044;-71
2024/02/21 12:43:06;;;;;;;4.88;2.22;;;15.80;63.20;;;;;;5075513;28;20496;-70
2024/02/21 12:45:33;;;;;;;4.53;2.13;;;15.90;63.90;;;;;;5075942;28;20071;-70
2024/02/21 12:47:59;;;;;;;2.85;1.88;;;15.80;64.60;;;;;;5075735;28;20020;-70
2024/02/21 12:50:25;;;;;;;3.67;2.30;;;15.80;64.10;;;;;;5075564;28;20071;-70